createdAt,value
2023-04-13T00:00:11.461Z,6.87
2023-04-13T00:01:06.583Z,6.85
2023-04-13T00:02:01.856Z,6.83
2023-04-13T00:02:56.960Z,6.81
2023-04-13T00:03:52.293Z,6.77
2023-04-13T00:04:51.386Z,6.76
2023-04-13T00:05:46.786Z,6.75
2023-04-13T00:06:41.494Z,6.76
2023-04-13T00:07:36.606Z,6.77
2023-04-13T00:08:31.588Z,6.78
2023-04-13T00:09:30.920Z,6.76
2023-04-13T00:10:25.919Z,6.73
2023-04-13T00:11:21.058Z,6.69
2023-04-13T00:12:16.081Z,6.63
2023-04-13T00:13:11.329Z,6.59
2023-04-13T00:14:06.396Z,6.57
2023-04-13T00:15:01.544Z,6.59
2023-04-13T00:15:56.701Z,6.57
2023-04-13T00:16:51.903Z,6.55
2023-04-13T00:17:47.052Z,6.56
2023-04-13T00:18:42.403Z,6.53
2023-04-13T00:19:37.723Z,6.51
2023-04-13T00:20:32.729Z,6.47
2023-04-13T00:21:27.851Z,6.47
2023-04-13T00:22:22.909Z,6.45
2023-04-13T00:23:18.308Z,6.42
2023-04-13T00:24:13.473Z,6.40
2023-04-13T00:25:08.483Z,6.39
2023-04-13T00:26:03.665Z,6.41
2023-04-13T00:26:58.811Z,6.34
2023-04-13T00:27:53.976Z,6.32
2023-04-13T00:28:49.412Z,6.27
2023-04-13T00:29:44.451Z,6.25
2023-04-13T00:30:39.635Z,6.25
2023-04-13T00:31:34.857Z,6.25
2023-04-13T00:32:30.599Z,6.26
2023-04-13T00:33:25.775Z,6.24
2023-04-13T00:34:20.802Z,6.24
2023-04-13T00:35:15.828Z,6.26
2023-04-13T00:36:10.841Z,6.25
2023-04-13T00:37:05.916Z,6.23
2023-04-13T00:38:01.063Z,6.18
2023-04-13T00:38:56.275Z,6.18
2023-04-13T00:39:51.415Z,6.18
2023-04-13T00:40:46.674Z,6.20
2023-04-13T00:41:41.718Z,6.25
2023-04-13T00:42:36.938Z,6.25
2023-04-13T00:43:32.108Z,6.24
2023-04-13T00:44:27.319Z,6.23
2023-04-13T00:45:22.482Z,6.22
2023-04-13T00:46:17.697Z,6.20
2023-04-13T00:47:12.812Z,6.20
2023-04-13T00:48:08.114Z,6.21
2023-04-13T00:49:03.304Z,6.19
2023-04-13T00:49:58.548Z,6.17
2023-04-13T00:50:53.525Z,6.19
2023-04-13T00:51:48.696Z,6.20
2023-04-13T00:52:43.974Z,6.17
2023-04-13T00:53:39.255Z,6.18
2023-04-13T00:54:34.157Z,6.18
2023-04-13T00:55:29.523Z,6.16
2023-04-13T00:56:24.583Z,6.13
2023-04-13T00:57:19.734Z,6.09
2023-04-13T00:58:15.095Z,6.08
2023-04-13T00:59:10.115Z,6.08
2023-04-13T01:00:05.263Z,6.07
2023-04-13T01:01:00.448Z,6.08
2023-04-13T01:01:55.618Z,6.09
2023-04-13T01:02:51.241Z,6.09
2023-04-13T01:03:46.326Z,6.12
2023-04-13T01:04:41.530Z,6.13
2023-04-13T01:05:36.521Z,6.14
2023-04-13T01:06:31.837Z,6.13
2023-04-13T01:07:26.999Z,6.13
2023-04-13T01:08:22.020Z,6.11
2023-04-13T01:09:17.456Z,6.10
2023-04-13T01:10:12.645Z,6.10
2023-04-13T01:11:07.653Z,6.06
2023-04-13T01:12:02.807Z,6.08
2023-04-13T01:12:58.080Z,6.10
2023-04-13T01:13:53.330Z,6.15
2023-04-13T01:14:48.297Z,6.18
2023-04-13T01:15:43.445Z,6.18
2023-04-13T01:16:38.586Z,6.14
2023-04-13T01:17:33.785Z,6.14
2023-04-13T01:18:28.882Z,6.10
2023-04-13T01:19:24.106Z,6.06
2023-04-13T01:20:19.238Z,6.04
2023-04-13T01:21:14.488Z,6.04
2023-04-13T01:22:09.475Z,6.02
2023-04-13T01:23:04.801Z,5.99
2023-04-13T01:23:59.953Z,5.98
2023-04-13T01:24:54.986Z,5.98
2023-04-13T01:25:50.348Z,6.00
2023-04-13T01:26:45.372Z,6.01
2023-04-13T01:27:40.572Z,6.02
2023-04-13T01:28:35.753Z,6.05
2023-04-13T01:29:30.919Z,6.05
2023-04-13T01:30:26.133Z,6.07
2023-04-13T01:31:21.351Z,6.04
2023-04-13T01:32:16.396Z,6.03
2023-04-13T01:33:11.704Z,6.02
2023-04-13T01:34:06.840Z,6.03
2023-04-13T01:35:01.822Z,6.01
2023-04-13T01:35:57.030Z,5.98
2023-04-13T01:36:52.163Z,5.99
2023-04-13T01:37:47.454Z,5.98
2023-04-13T01:38:42.490Z,5.97
2023-04-13T01:39:37.670Z,5.94
2023-04-13T01:40:32.839Z,5.94
2023-04-13T01:41:28.024Z,5.97
2023-04-13T01:42:23.333Z,6.02
2023-04-13T01:43:18.539Z,6.11
2023-04-13T01:44:13.424Z,6.15
2023-04-13T01:45:08.510Z,6.23
2023-04-13T01:46:03.541Z,6.27
2023-04-13T01:46:58.621Z,6.25
2023-04-13T01:47:53.642Z,6.22
2023-04-13T01:48:48.787Z,6.17
2023-04-13T01:49:43.777Z,6.12
2023-04-13T01:50:38.812Z,6.11
2023-04-13T01:51:33.822Z,6.10
2023-04-13T01:52:28.888Z,6.07
2023-04-13T01:53:23.872Z,6.07
2023-04-13T01:54:19.110Z,6.04
2023-04-13T01:55:14.116Z,6.02
2023-04-13T01:56:09.357Z,6.00
2023-04-13T01:57:04.346Z,5.98
2023-04-13T01:57:59.508Z,5.97
2023-04-13T01:58:54.573Z,5.96
2023-04-13T01:59:49.672Z,5.98
2023-04-13T02:00:44.691Z,6.00
2023-04-13T02:01:39.701Z,6.00
2023-04-13T02:02:34.891Z,5.98
2023-04-13T02:03:29.980Z,6.00
2023-04-13T02:04:24.974Z,6.03
2023-04-13T02:05:20.049Z,6.05
2023-04-13T02:06:15.050Z,6.04
2023-04-13T02:07:10.095Z,6.01
2023-04-13T02:08:05.153Z,5.99
2023-04-13T02:09:00.232Z,5.98
2023-04-13T02:09:55.258Z,6.00
2023-04-13T02:10:50.298Z,6.01
2023-04-13T02:11:45.308Z,6.03
2023-04-13T02:12:40.374Z,6.04
2023-04-13T02:13:35.413Z,6.05
2023-04-13T02:14:30.620Z,6.02
2023-04-13T02:15:25.940Z,6.00
2023-04-13T02:16:21.055Z,5.99
2023-04-13T02:17:16.343Z,5.94
2023-04-13T02:18:11.595Z,5.91
2023-04-13T02:19:06.763Z,5.89
2023-04-13T02:20:02.093Z,5.89
2023-04-13T02:20:57.117Z,5.91
2023-04-13T02:21:52.471Z,5.94
2023-04-13T02:22:47.467Z,5.92
2023-04-13T02:23:42.656Z,5.91
2023-04-13T02:24:37.811Z,5.93
2023-04-13T02:25:33.003Z,5.93
2023-04-13T02:26:28.154Z,5.93
2023-04-13T02:27:23.485Z,5.91
2023-04-13T02:28:18.492Z,5.92
2023-04-13T02:29:13.692Z,5.90
2023-04-13T02:30:08.870Z,5.86
2023-04-13T02:31:04.022Z,5.86
2023-04-13T02:31:59.351Z,5.85
2023-04-13T02:32:54.432Z,5.83
2023-04-13T02:33:49.448Z,5.82
2023-04-13T02:34:44.822Z,5.84
2023-04-13T02:35:39.865Z,5.86
2023-04-13T02:36:35.005Z,5.88
2023-04-13T02:37:30.172Z,5.87
2023-04-13T02:38:25.397Z,5.86
2023-04-13T02:39:20.521Z,5.88
2023-04-13T02:40:15.895Z,5.91
2023-04-13T02:41:10.772Z,5.94
2023-04-13T02:42:05.998Z,5.97
2023-04-13T02:43:01.101Z,5.96
2023-04-13T02:43:56.549Z,5.97
2023-04-13T02:44:51.451Z,5.98
2023-04-13T02:45:46.528Z,5.99
2023-04-13T02:46:41.657Z,6.00
2023-04-13T02:47:36.861Z,6.01
2023-04-13T02:48:32.127Z,6.00
2023-04-13T02:49:29.547Z,5.99
2023-04-13T02:50:24.825Z,5.99
2023-04-13T02:51:19.858Z,6.00
2023-04-13T02:52:15.205Z,6.00
2023-04-13T02:53:10.353Z,6.01
2023-04-13T02:54:05.495Z,6.01
2023-04-13T02:55:00.580Z,6.01
2023-04-13T02:55:55.577Z,6.02
2023-04-13T02:56:50.630Z,6.04
2023-04-13T02:57:45.640Z,6.05
2023-04-13T02:58:40.774Z,6.03
2023-04-13T02:59:35.763Z,6.03
2023-04-13T03:00:31.008Z,6.05
2023-04-13T03:01:26.508Z,6.05
2023-04-13T03:02:21.744Z,6.04
2023-04-13T03:03:16.635Z,6.04
2023-04-13T03:04:11.724Z,6.02
2023-04-13T03:05:06.748Z,5.98
2023-04-13T03:06:01.834Z,5.97
2023-04-13T03:06:56.867Z,5.97
2023-04-13T03:07:51.971Z,5.98
2023-04-13T03:08:46.969Z,5.98
2023-04-13T03:09:42.116Z,6.01
2023-04-13T03:10:37.147Z,6.05
2023-04-13T03:11:32.221Z,6.07
2023-04-13T03:12:27.297Z,6.07
2023-04-13T03:13:22.341Z,6.10
2023-04-13T03:14:17.367Z,6.10
2023-04-13T03:15:12.477Z,6.08
2023-04-13T03:16:07.669Z,6.06
2023-04-13T03:17:02.589Z,6.05
2023-04-13T03:17:59.557Z,6.06
2023-04-13T03:18:54.610Z,6.04
2023-04-13T03:19:49.643Z,6.00
2023-04-13T03:20:44.819Z,5.97
2023-04-13T03:21:39.861Z,5.95
2023-04-13T03:22:34.722Z,5.93
2023-04-13T03:23:29.808Z,5.90
2023-04-13T03:24:24.936Z,5.90
2023-04-13T03:25:20.260Z,5.86
2023-04-13T03:26:15.326Z,5.81
2023-04-13T03:27:10.509Z,5.81
2023-04-13T03:28:05.560Z,5.79
2023-04-13T03:29:00.704Z,5.77
2023-04-13T03:29:55.990Z,5.78
2023-04-13T03:30:51.094Z,5.75
2023-04-13T03:31:46.667Z,5.72
2023-04-13T03:32:41.826Z,5.75
2023-04-13T03:33:37.103Z,5.78
2023-04-13T03:34:32.286Z,5.79
2023-04-13T03:35:27.753Z,5.79
2023-04-13T03:36:22.651Z,5.83
2023-04-13T03:37:17.888Z,5.85
2023-04-13T03:38:12.980Z,5.83
2023-04-13T03:39:08.093Z,5.79
2023-04-13T03:40:03.305Z,5.75
2023-04-13T03:40:58.443Z,5.73
2023-04-13T03:41:53.629Z,5.70
2023-04-13T03:42:48.808Z,5.70
2023-04-13T03:43:43.991Z,5.70
2023-04-13T03:44:39.314Z,5.65
2023-04-13T03:45:34.399Z,5.65
2023-04-13T03:46:29.595Z,5.65
2023-04-13T03:47:24.766Z,5.63
2023-04-13T03:48:19.915Z,5.62
2023-04-13T03:49:15.096Z,5.59
2023-04-13T03:50:10.137Z,5.59
2023-04-13T03:51:05.340Z,5.58
2023-04-13T03:52:00.481Z,5.58
2023-04-13T03:52:55.616Z,5.60
2023-04-13T03:53:50.756Z,5.62
2023-04-13T03:54:45.990Z,5.64
2023-04-13T03:55:41.034Z,5.72
2023-04-13T03:56:36.057Z,5.71
2023-04-13T03:57:31.059Z,5.69
2023-04-13T03:58:26.137Z,5.67
2023-04-13T03:59:21.152Z,5.66
2023-04-13T04:00:16.321Z,5.62
2023-04-13T04:01:11.479Z,5.55
2023-04-13T04:02:06.583Z,5.55
2023-04-13T04:03:01.666Z,5.58
2023-04-13T04:03:56.878Z,5.57
2023-04-13T04:04:51.788Z,5.55
2023-04-13T04:05:46.939Z,5.56
2023-04-13T04:06:41.862Z,5.59
2023-04-13T04:07:36.897Z,5.60
2023-04-13T04:08:31.906Z,5.58
2023-04-13T04:09:27.035Z,5.56
2023-04-13T04:10:22.233Z,5.56
2023-04-13T04:11:17.256Z,5.54
2023-04-13T04:12:14.478Z,5.53
2023-04-13T04:13:07.322Z,5.49
2023-04-13T04:14:06.506Z,5.46
2023-04-13T04:15:01.586Z,5.39
2023-04-13T04:15:56.608Z,5.38
2023-04-13T04:16:51.660Z,5.38
2023-04-13T04:17:46.938Z,5.33
2023-04-13T04:18:42.167Z,5.34
2023-04-13T04:19:37.284Z,5.34
2023-04-13T04:20:32.402Z,5.36
2023-04-13T04:21:27.374Z,5.34
2023-04-13T04:22:22.458Z,5.33
2023-04-13T04:23:19.810Z,5.34
2023-04-13T04:24:12.709Z,5.35
2023-04-13T04:25:07.739Z,5.31
2023-04-13T04:26:02.869Z,5.28
2023-04-13T04:26:57.911Z,5.29
2023-04-13T04:27:53.003Z,5.28
2023-04-13T04:28:47.983Z,5.28
2023-04-13T04:29:43.088Z,5.31
2023-04-13T04:32:07.004Z,4.96
2023-04-13T04:33:01.022Z,5.17
2023-04-13T04:33:56.375Z,5.21
2023-04-13T04:34:51.525Z,5.21
2023-04-13T04:35:46.971Z,5.23
2023-04-13T04:36:41.959Z,5.24
2023-04-13T04:37:37.260Z,5.27
2023-04-13T04:38:32.684Z,5.30
2023-04-13T04:39:27.866Z,5.29
2023-04-13T04:40:23.229Z,5.25
2023-04-13T04:41:18.557Z,5.24
2023-04-13T04:42:14.003Z,5.27
2023-04-13T04:43:09.237Z,5.27
2023-04-13T04:44:04.502Z,5.26
2023-04-13T04:44:59.855Z,5.26
2023-04-13T04:45:55.305Z,5.23
2023-04-13T04:46:50.595Z,5.22
2023-04-13T04:47:45.741Z,5.20
2023-04-13T04:48:41.060Z,5.23
2023-04-13T04:49:36.411Z,5.20
2023-04-13T04:50:31.593Z,5.19
2023-04-13T04:51:27.051Z,5.19
2023-04-13T04:52:25.034Z,5.18
2023-04-13T04:53:17.488Z,5.16
2023-04-13T04:54:12.926Z,5.16
2023-04-13T04:55:08.082Z,5.11
2023-04-13T04:56:03.621Z,5.07
2023-04-13T04:56:58.748Z,5.07
2023-04-13T04:57:54.111Z,5.08
2023-04-13T04:58:49.269Z,5.09
2023-04-13T04:59:44.613Z,5.09
2023-04-13T05:00:39.854Z,5.09
2023-04-13T05:01:35.418Z,5.09
2023-04-13T05:02:30.672Z,5.10
2023-04-13T05:03:25.846Z,5.09
2023-04-13T05:04:21.130Z,5.08
2023-04-13T05:05:16.552Z,5.08
2023-04-13T05:06:11.885Z,5.04
2023-04-13T05:07:07.132Z,5.04
2023-04-13T05:08:02.372Z,5.05
2023-04-13T05:08:58.094Z,5.05
2023-04-13T05:09:53.080Z,5.01
2023-04-13T05:10:48.694Z,5.03
2023-04-13T05:11:43.784Z,5.04
2023-04-13T05:12:39.294Z,5.03
2023-04-13T05:13:34.525Z,5.02
2023-04-13T05:14:29.898Z,5.01
2023-04-13T05:15:25.196Z,4.99
2023-04-13T05:16:20.730Z,4.98
2023-04-13T05:17:15.841Z,4.99
2023-04-13T05:18:11.393Z,5.00
2023-04-13T05:19:06.601Z,5.02
2023-04-13T05:20:01.987Z,5.01
2023-04-13T05:20:57.244Z,5.04
2023-04-13T05:21:52.741Z,5.07
2023-04-13T05:22:48.097Z,5.09
2023-04-13T05:23:43.378Z,5.11
2023-04-13T05:24:38.609Z,5.06
2023-04-13T05:25:33.926Z,5.02
2023-04-13T05:26:29.268Z,5.01
2023-04-13T05:27:24.637Z,5.02
2023-04-13T05:28:19.882Z,5.03
2023-04-13T05:29:15.270Z,5.05
2023-04-13T05:30:10.694Z,5.05
2023-04-13T05:31:06.053Z,5.03
2023-04-13T05:32:01.378Z,5.04
2023-04-13T05:32:56.959Z,5.06
2023-04-13T05:33:52.092Z,5.02
2023-04-13T05:34:47.477Z,5.04
2023-04-13T05:35:42.970Z,5.11
2023-04-13T05:36:38.300Z,5.17
2023-04-13T05:37:33.424Z,5.24
2023-04-13T05:38:28.918Z,5.29
2023-04-13T05:39:24.188Z,5.29
2023-04-13T05:40:19.821Z,5.28
2023-04-13T05:41:15.009Z,5.29
2023-04-13T05:42:10.486Z,5.29
2023-04-13T05:43:06.061Z,5.29
2023-04-13T05:44:01.456Z,5.26
2023-04-13T05:44:56.773Z,5.29
2023-04-13T05:45:52.349Z,5.31
2023-04-13T05:46:47.646Z,5.29
2023-04-13T05:47:43.289Z,5.29
2023-04-13T05:48:38.486Z,5.31
2023-04-13T05:49:34.012Z,5.34
2023-04-13T05:50:29.446Z,5.37
2023-04-13T05:51:24.750Z,5.39
2023-04-13T05:52:20.039Z,5.41
2023-04-13T05:53:15.764Z,5.44
2023-04-13T05:54:10.928Z,5.43
2023-04-13T05:55:06.496Z,5.44
2023-04-13T05:56:01.688Z,5.47
2023-04-13T05:56:57.136Z,5.46
2023-04-13T05:57:52.422Z,5.44
2023-04-13T05:58:47.770Z,5.44
2023-04-13T05:59:43.184Z,5.47
2023-04-13T06:00:38.840Z,5.43
2023-04-13T06:01:33.976Z,5.45
2023-04-13T06:02:29.533Z,5.49
2023-04-13T06:03:25.010Z,5.51
2023-04-13T06:04:20.332Z,5.52
2023-04-13T06:05:15.615Z,5.51
2023-04-13T06:06:10.843Z,5.51
2023-04-13T06:07:06.283Z,5.50
2023-04-13T06:08:01.685Z,5.51
2023-04-13T06:08:57.185Z,5.47
2023-04-13T06:09:52.322Z,5.50
2023-04-13T06:10:47.785Z,5.54
2023-04-13T06:11:42.965Z,5.55
2023-04-13T06:12:38.276Z,5.61
2023-04-13T06:13:33.868Z,5.63
2023-04-13T06:14:29.042Z,5.63
2023-04-13T06:15:24.710Z,5.65
2023-04-13T06:16:19.883Z,5.67
2023-04-13T06:17:15.471Z,5.67
2023-04-13T06:18:10.724Z,5.70
2023-04-13T06:19:06.223Z,5.75
2023-04-13T06:20:01.658Z,5.81
2023-04-13T06:20:56.936Z,5.88
2023-04-13T06:21:52.208Z,5.94
2023-04-13T06:22:47.654Z,5.98
2023-04-13T06:23:43.325Z,5.98
2023-04-13T06:24:38.542Z,6.00
2023-04-13T06:25:34.052Z,6.02
2023-04-13T06:26:29.257Z,6.04
2023-04-13T06:27:24.691Z,6.05
2023-04-13T06:28:20.154Z,6.04
2023-04-13T06:29:15.433Z,6.07
2023-04-13T06:30:10.911Z,6.06
2023-04-13T06:31:06.200Z,6.03
2023-04-13T06:32:01.627Z,6.04
2023-04-13T06:32:56.968Z,6.04
2023-04-13T06:33:52.432Z,6.07
2023-04-13T06:34:47.753Z,6.04
2023-04-13T06:35:43.093Z,6.07
2023-04-13T06:36:38.387Z,6.12
2023-04-13T06:37:33.855Z,6.13
2023-04-13T06:38:29.154Z,6.15
2023-04-13T06:39:26.016Z,6.18
2023-04-13T06:40:20.071Z,6.09
2023-04-13T06:41:15.638Z,6.08
2023-04-13T06:42:10.823Z,6.07
2023-04-13T06:43:11.049Z,5.99
2023-04-13T06:44:02.478Z,5.99
2023-04-13T06:44:56.946Z,6.02
2023-04-13T06:45:52.271Z,6.06
2023-04-13T06:46:47.741Z,6.02
2023-04-13T06:47:43.245Z,6.04
2023-04-13T06:48:38.547Z,6.07
2023-04-13T06:49:33.718Z,6.03
2023-04-13T06:50:28.893Z,6.05
2023-04-13T06:51:24.189Z,6.05
2023-04-13T06:52:19.750Z,6.08
2023-04-13T06:53:14.966Z,6.11
2023-04-13T06:54:10.433Z,6.16
2023-04-13T06:55:05.536Z,6.25
2023-04-13T06:56:00.950Z,6.29
2023-04-13T06:56:56.257Z,6.32
2023-04-13T06:57:51.748Z,6.34
2023-04-13T06:58:47.151Z,6.38
2023-04-13T06:59:42.662Z,6.44
2023-04-13T07:00:37.864Z,6.51
2023-04-13T07:01:33.225Z,6.54
2023-04-13T07:02:28.642Z,6.45
2023-04-13T07:03:23.924Z,6.44
2023-04-13T07:04:19.389Z,6.40
2023-04-13T07:05:14.674Z,6.41
2023-04-13T07:06:09.970Z,6.44
2023-04-13T07:07:05.441Z,6.39
2023-04-13T07:08:00.848Z,6.45
2023-04-13T07:08:56.595Z,6.51
2023-04-13T07:09:51.776Z,6.56
2023-04-13T07:10:47.212Z,6.59
2023-04-13T07:11:42.516Z,6.58
2023-04-13T07:12:37.950Z,6.60
2023-04-13T07:13:33.454Z,6.59
2023-04-13T07:14:28.563Z,6.60
2023-04-13T07:15:23.842Z,6.65
2023-04-13T07:16:19.397Z,6.69
2023-04-13T07:17:14.760Z,6.70
2023-04-13T07:18:10.046Z,6.64
2023-04-13T07:19:05.634Z,6.57
2023-04-13T07:20:00.814Z,6.58
2023-04-13T07:20:56.132Z,6.57
2023-04-13T07:21:51.441Z,6.60
2023-04-13T07:22:46.903Z,6.53
2023-04-13T07:23:42.793Z,6.50
2023-04-13T07:24:38.163Z,6.48
2023-04-13T07:25:33.530Z,6.51
2023-04-13T07:26:28.930Z,6.57
2023-04-13T07:27:24.321Z,6.62
2023-04-13T07:28:19.697Z,6.69
2023-04-13T07:29:15.406Z,6.74
2023-04-13T07:30:10.487Z,6.75
2023-04-13T07:31:05.899Z,6.73
2023-04-13T07:32:01.345Z,6.78
2023-04-13T07:32:56.680Z,6.83
2023-04-13T07:33:52.077Z,6.81
2023-04-13T07:34:47.504Z,6.82
2023-04-13T07:35:42.583Z,6.87
2023-04-13T07:36:37.767Z,6.89
2023-04-13T07:37:33.247Z,6.92
2023-04-13T07:38:28.545Z,6.94
2023-04-13T07:39:24.225Z,6.88
2023-04-13T07:40:19.254Z,6.88
2023-04-13T07:41:14.303Z,6.93
2023-04-13T07:42:09.378Z,7.01
2023-04-13T07:43:06.302Z,7.06
2023-04-13T07:44:01.380Z,7.05
2023-04-13T07:44:56.489Z,7.07
2023-04-13T07:45:51.553Z,7.07
2023-04-13T07:46:46.742Z,7.06
2023-04-13T07:47:41.689Z,6.98
2023-04-13T07:48:36.732Z,6.96
2023-04-13T07:49:31.756Z,6.95
2023-04-13T07:50:26.969Z,6.95
2023-04-13T07:51:22.039Z,6.94
2023-04-13T07:52:17.142Z,6.99
2023-04-13T07:53:12.129Z,6.98
2023-04-13T07:54:07.205Z,7.02
2023-04-13T07:55:02.405Z,7.03
2023-04-13T07:55:57.914Z,7.08
2023-04-13T07:56:53.482Z,7.16
2023-04-13T07:57:48.849Z,7.16
2023-04-13T07:58:44.318Z,7.23
2023-04-13T07:59:39.523Z,7.36
2023-04-13T08:00:35.017Z,7.45
2023-04-13T08:01:30.542Z,7.60
2023-04-13T08:02:25.994Z,7.74
2023-04-13T08:03:21.567Z,7.76
2023-04-13T08:04:17.147Z,7.71
2023-04-13T08:05:12.411Z,7.82
2023-04-13T08:06:07.821Z,7.94
2023-04-13T08:07:03.258Z,8.08
2023-04-13T08:07:58.691Z,8.24
2023-04-13T08:08:54.264Z,8.47
2023-04-13T08:09:49.227Z,8.62
2023-04-13T08:10:44.275Z,8.90
2023-04-13T08:11:39.270Z,9.14
2023-04-13T08:12:34.425Z,9.21
2023-04-13T08:13:29.543Z,9.29
2023-04-13T08:14:24.518Z,9.40
2023-04-13T08:15:19.548Z,9.44
2023-04-13T08:16:14.730Z,9.45
2023-04-13T08:17:09.769Z,9.44
2023-04-13T08:18:04.916Z,9.41
2023-04-13T08:19:00.165Z,9.44
2023-04-13T08:19:55.031Z,9.35
2023-04-13T08:20:50.170Z,9.11
2023-04-13T08:21:45.273Z,9.05
2023-04-13T08:22:43.032Z,9.12
2023-04-13T08:23:38.563Z,9.19
2023-04-13T08:24:33.775Z,9.32
2023-04-13T08:25:29.068Z,9.35
2023-04-13T08:26:24.462Z,9.25
2023-04-13T08:27:20.030Z,9.16
2023-04-13T08:28:15.098Z,9.05
2023-04-13T08:29:10.164Z,8.92
2023-04-13T08:30:05.210Z,8.76
2023-04-13T08:31:00.264Z,8.66
2023-04-13T08:31:55.253Z,8.59
2023-04-13T08:32:50.330Z,8.64
2023-04-13T08:33:45.297Z,8.70
2023-04-13T08:34:40.356Z,8.71
2023-04-13T08:35:35.387Z,8.74
2023-04-13T08:36:30.476Z,8.79
2023-04-13T08:37:25.708Z,8.76
2023-04-13T08:38:21.340Z,8.80
2023-04-13T08:39:16.401Z,8.80
2023-04-13T08:40:11.945Z,8.63
2023-04-13T08:41:07.354Z,8.54
2023-04-13T08:42:02.737Z,8.35
2023-04-13T08:42:58.178Z,8.15
2023-04-13T08:43:53.600Z,8.15
2023-04-13T08:44:49.019Z,8.29
2023-04-13T08:45:48.506Z,8.33
2023-04-13T08:46:43.746Z,8.09
2023-04-13T08:47:39.430Z,8.05
2023-04-13T08:48:46.191Z,7.91
2023-04-13T08:49:31.291Z,7.73
2023-04-13T08:50:25.724Z,7.75
2023-04-13T08:51:21.251Z,7.80
2023-04-13T08:52:16.997Z,7.86
2023-04-13T08:53:12.156Z,7.91
2023-04-13T08:54:07.359Z,7.95
2023-04-13T08:55:02.877Z,8.05
2023-04-13T08:55:58.348Z,8.09
2023-04-13T08:56:53.866Z,8.12
2023-04-13T08:57:51.167Z,8.10
2023-04-13T08:58:44.772Z,8.01
2023-04-13T08:59:39.849Z,7.95
2023-04-13T09:00:35.160Z,7.99
2023-04-13T09:01:30.209Z,8.03
2023-04-13T09:02:25.147Z,8.09
2023-04-13T09:03:20.493Z,8.11
2023-04-13T09:04:15.386Z,8.15
2023-04-13T09:05:10.584Z,8.13
2023-04-13T09:06:05.465Z,8.07
2023-04-13T09:07:00.450Z,8.00
2023-04-13T09:07:55.667Z,8.00
2023-04-13T09:08:52.080Z,7.92
2023-04-13T09:09:47.666Z,7.84
2023-04-13T09:10:43.161Z,7.82
2023-04-13T09:11:38.644Z,7.79
2023-04-13T09:12:34.000Z,7.76
2023-04-13T09:13:29.471Z,7.73
2023-04-13T09:14:24.823Z,7.65
2023-04-13T09:15:20.205Z,7.60
2023-04-13T09:16:15.609Z,7.54
2023-04-13T09:17:11.061Z,7.49
2023-04-13T09:18:07.455Z,7.46
2023-04-13T09:19:02.178Z,7.46
2023-04-13T09:19:57.358Z,7.48
2023-04-13T09:20:52.713Z,7.47
2023-04-13T09:21:47.942Z,7.40
2023-04-13T09:22:44.173Z,7.37
2023-04-13T09:23:39.051Z,7.39
2023-04-13T09:24:34.312Z,7.41
2023-04-13T09:25:29.959Z,7.39
2023-04-13T09:26:25.882Z,7.42
2023-04-13T09:27:20.959Z,7.41
2023-04-13T09:28:16.776Z,7.44
2023-04-13T09:29:12.896Z,7.49
2023-04-13T09:30:07.999Z,7.56
2023-04-13T09:31:03.291Z,7.61
2023-04-13T09:31:58.776Z,7.63
2023-04-13T09:32:54.588Z,7.66
2023-04-13T09:33:50.142Z,7.69
2023-04-13T09:34:45.348Z,7.69
2023-04-13T09:35:41.980Z,7.67
2023-04-13T09:36:49.548Z,7.53
2023-04-13T09:37:34.363Z,7.41
2023-04-13T09:38:28.765Z,7.40
2023-04-13T09:39:24.213Z,7.44
2023-04-13T09:40:20.085Z,7.54
2023-04-13T09:41:15.486Z,7.67
2023-04-13T09:42:11.313Z,7.78
2023-04-13T09:43:06.652Z,7.87
2023-04-13T09:44:02.929Z,7.95
2023-04-13T09:44:57.849Z,8.01
2023-04-13T09:45:53.244Z,8.16
2023-04-13T09:46:49.012Z,8.38
2023-04-13T09:47:45.163Z,8.71
2023-04-13T09:48:40.714Z,8.92
2023-04-13T09:49:36.391Z,9.00
2023-04-13T09:50:31.901Z,9.12
2023-04-13T09:51:27.256Z,9.33
2023-04-13T09:52:23.300Z,9.65
2023-04-13T09:53:18.425Z,9.92
2023-04-13T09:54:14.424Z,9.96
2023-04-13T09:55:10.337Z,9.70
2023-04-13T09:56:05.826Z,9.69
2023-04-13T09:57:00.987Z,9.64
2023-04-13T09:57:56.598Z,9.79
2023-04-13T09:58:52.039Z,10.04
2023-04-13T09:59:48.375Z,10.26
2023-04-13T10:00:43.788Z,10.53
2023-04-13T10:01:39.791Z,10.69
2023-04-13T10:02:35.046Z,10.74
2023-04-13T10:03:30.516Z,10.56
2023-04-13T10:04:26.279Z,10.40
2023-04-13T10:05:21.822Z,10.48
2023-04-13T10:06:17.544Z,10.58
2023-04-13T10:07:12.782Z,10.60
2023-04-13T10:08:08.248Z,10.48
2023-04-13T10:09:03.902Z,10.36
2023-04-13T10:09:59.889Z,10.23
2023-04-13T10:10:54.772Z,9.82
2023-04-13T10:11:51.570Z,9.43
2023-04-13T10:12:46.975Z,9.18
2023-04-13T10:13:42.975Z,9.02
2023-04-13T10:14:38.287Z,8.99
2023-04-13T10:15:33.840Z,9.01
2023-04-13T10:16:29.647Z,9.08
2023-04-13T10:17:25.244Z,9.22
2023-04-13T10:18:20.974Z,9.64
2023-04-13T10:19:16.395Z,10.08
2023-04-13T10:20:11.759Z,10.50
2023-04-13T10:21:07.475Z,10.85
2023-04-13T10:22:02.829Z,11.23
2023-04-13T10:22:58.287Z,11.24
2023-04-13T10:23:54.470Z,11.29
2023-04-13T10:24:50.746Z,11.62
2023-04-13T10:25:45.610Z,11.77
2023-04-13T10:26:41.239Z,11.79
2023-04-13T10:27:36.487Z,11.70
2023-04-13T10:28:31.985Z,11.63
2023-04-13T10:29:28.037Z,11.73
2023-04-13T10:30:23.393Z,11.66
2023-04-13T10:31:18.674Z,11.39
2023-04-13T10:32:14.650Z,11.03
2023-04-13T10:34:34.312Z,10.77
2023-04-13T10:35:29.426Z,10.87
2023-04-13T10:36:24.850Z,10.91
2023-04-13T10:37:20.224Z,10.66
2023-04-13T10:38:15.743Z,10.60
2023-04-13T10:39:10.991Z,10.79
2023-04-13T10:40:06.665Z,10.98
2023-04-13T10:41:01.935Z,11.07
2023-04-13T10:41:57.286Z,10.89
2023-04-13T10:42:53.334Z,10.87
2023-04-13T10:43:48.219Z,10.89
2023-04-13T10:44:43.518Z,10.99
2023-04-13T10:45:38.808Z,11.29
2023-04-13T10:46:34.284Z,11.53
2023-04-13T10:47:29.659Z,11.89
2023-04-13T10:48:25.055Z,12.24
2023-04-13T10:49:20.587Z,12.38
2023-04-13T10:50:16.042Z,12.33
2023-04-13T10:51:11.334Z,12.30
2023-04-13T10:52:06.761Z,12.03
2023-04-13T10:53:02.317Z,11.60
2023-04-13T10:53:57.553Z,11.59
2023-04-13T10:54:53.136Z,11.54
2023-04-13T10:55:48.378Z,11.69
2023-04-13T10:56:43.685Z,11.93
2023-04-13T10:57:39.106Z,12.02
2023-04-13T10:58:34.703Z,11.52
2023-04-13T10:59:29.889Z,11.30
2023-04-13T11:00:34.742Z,11.26
2023-04-13T11:01:21.727Z,11.22
2023-04-13T11:02:16.559Z,10.86
2023-04-13T11:03:11.888Z,10.59
2023-04-13T11:04:09.869Z,10.43
2023-04-13T11:05:03.735Z,10.13
2023-04-13T11:05:58.152Z,10.03
2023-04-13T11:06:53.695Z,10.15
2023-04-13T11:07:55.065Z,10.28
2023-04-13T11:08:48.405Z,10.32
2023-04-13T11:09:39.915Z,10.38
2023-04-13T11:10:35.507Z,10.49
2023-04-13T11:11:30.876Z,10.49
2023-04-13T11:12:26.365Z,10.46
2023-04-13T11:13:21.866Z,10.42
2023-04-13T11:14:19.275Z,10.49
2023-04-13T11:15:12.625Z,10.47
2023-04-13T11:16:08.113Z,10.50
2023-04-13T11:17:03.379Z,10.57
2023-04-13T11:17:58.821Z,10.66
2023-04-13T11:18:54.315Z,10.73
2023-04-13T11:19:50.204Z,10.64
2023-04-13T11:20:45.280Z,10.43
2023-04-13T11:21:40.807Z,10.23
2023-04-13T11:22:36.207Z,10.00
2023-04-13T11:23:31.717Z,9.80
2023-04-13T11:24:27.228Z,9.66
2023-04-13T11:25:22.925Z,9.75
2023-04-13T11:26:18.254Z,9.85
2023-04-13T11:27:13.749Z,9.89
2023-04-13T11:28:09.068Z,9.90
2023-04-13T11:29:04.484Z,9.81
2023-04-13T11:30:00.051Z,9.58
2023-04-13T11:30:55.363Z,9.41
2023-04-13T11:31:50.888Z,9.30
2023-04-13T11:32:46.190Z,9.34
2023-04-13T11:33:41.581Z,9.43
2023-04-13T11:34:36.972Z,9.41
2023-04-13T11:35:32.541Z,9.44
2023-04-13T11:36:27.919Z,9.51
2023-04-13T11:37:23.486Z,9.56
2023-04-13T11:38:18.991Z,9.63
2023-04-13T11:39:14.479Z,9.73
2023-04-13T11:40:09.855Z,9.79
2023-04-13T11:41:15.639Z,9.83
2023-04-13T11:42:01.695Z,9.74
2023-04-13T11:42:56.364Z,9.66
2023-04-13T11:43:51.663Z,9.72
2023-04-13T11:44:47.181Z,9.83
2023-04-13T11:45:42.717Z,9.94
2023-04-13T11:46:38.227Z,10.06
2023-04-13T11:47:33.566Z,10.20
2023-04-13T11:48:28.929Z,10.19
2023-04-13T11:49:24.591Z,10.27
2023-04-13T11:50:19.895Z,10.35
2023-04-13T11:51:15.251Z,10.41
2023-04-13T11:52:10.495Z,10.51
2023-04-13T11:53:06.167Z,10.49
2023-04-13T11:54:01.563Z,10.54
2023-04-13T11:54:59.233Z,10.70
2023-04-13T11:55:54.066Z,10.68
2023-04-13T11:56:48.806Z,10.55
2023-04-13T11:57:43.634Z,10.42
2023-04-13T11:58:39.113Z,10.26
2023-04-13T11:59:34.465Z,10.08
2023-04-13T12:00:30.018Z,10.03
2023-04-13T12:01:28.269Z,10.09
2023-04-13T12:02:23.313Z,10.17
2023-04-13T12:03:34.616Z,10.13
2023-04-13T12:04:16.457Z,10.09
2023-04-13T12:05:08.101Z,10.08
2023-04-13T12:06:03.486Z,10.03
2023-04-13T12:06:59.188Z,9.97
2023-04-13T12:07:54.594Z,9.95
2023-04-13T12:08:53.225Z,9.92
2023-04-13T12:10:47.041Z,9.89
2023-04-13T12:11:42.089Z,9.90
2023-04-13T12:12:51.493Z,9.91
2023-04-13T12:13:35.996Z,9.97
2023-04-13T12:16:18.077Z,9.90
2023-04-13T12:17:26.153Z,9.91
2023-04-13T12:18:14.603Z,9.95
2023-04-13T12:19:02.407Z,9.86